Time;durP1;ratioP1;P1;durP2;ratioP2;P2;SDS_P1;SDS_P2;PMS_P1;PMS_P2;Temp;Humidity;BMP_temperature;BMP_pressure;BME280_temperature;BME280_humidity;BME280_pressure;Samples;Min_cycle;Max_cycle;Signal;HPM_P1;HPM_P2
2021/05/09 00:01:08;;;;;;;3.65;2.92;;;5.70;86.00;;;;;;6247541;22;20004;-87
2021/05/09 00:03:34;;;;;;;4.22;3.30;;;5.60;86.20;;;;;;6245773;23;20462;-87
2021/05/09 00:06:00;;;;;;;4.45;3.13;;;5.60;86.40;;;;;;6245948;23;20004;-87
2021/05/09 00:08:25;;;;;;;4.22;3.00;;;5.60;86.20;;;;;;6247346;22;19996;-87
2021/05/09 00:10:51;;;;;;;5.30;3.13;;;5.60;86.80;;;;;;6247300;22;20042;-87
2021/05/09 00:13:17;;;;;;;3.05;2.75;;;5.60;86.80;;;;;;6245353;22;20004;-87
2021/05/09 00:15:43;;;;;;;4.97;2.40;;;5.50;86.80;;;;;;6245939;23;20087;-87
2021/05/09 00:18:09;;;;;;;5.65;3.45;;;5.50;87.10;;;;;;6247310;22;20039;-87
2021/05/09 00:20:36;;;;;;;3.95;2.97;;;5.50;86.80;;;;;;6247174;22;20007;-87
2021/05/09 00:23:01;;;;;;;3.47;2.60;;;5.50;87.10;;;;;;6245618;23;20008;-87
2021/05/09 00:25:27;;;;;;;6.00;2.97;;;5.50;87.00;;;;;;6245617;23;20066;-87
2021/05/09 00:27:53;;;;;;;3.38;2.35;;;5.40;86.90;;;;;;6245604;22;20009;-87
2021/05/09 00:30:19;;;;;;;3.20;2.47;;;5.40;87.20;;;;;;6247176;22;20076;-87
2021/05/09 00:32:46;;;;;;;4.93;2.88;;;5.40;87.00;;;;;;6247140;22;20011;-87
2021/05/09 00:35:12;;;;;;;2.97;2.53;;;5.40;86.90;;;;;;6245588;22;20348;-87
2021/05/09 00:37:38;;;;;;;2.70;2.47;;;5.30;87.30;;;;;;6245628;23;20004;-87
2021/05/09 00:40:06;;;;;;;3.28;2.58;;;5.30;87.10;;;;;;6245153;23;20095;-87
2021/05/09 00:42:31;;;;;;;2.65;2.30;;;5.30;87.60;;;;;;6246871;22;20000;-87
2021/05/09 00:44:57;;;;;;;4.35;3.22;;;5.30;87.40;;;;;;6246881;22;19996;-87
2021/05/09 00:47:23;;;;;;;3.10;2.55;;;5.30;87.60;;;;;;6245708;23;20007;-87
2021/05/09 00:49:48;;;;;;;4.43;3.00;;;5.30;87.90;;;;;;6246988;22;20309;-87
2021/05/09 00:52:14;;;;;;;3.38;2.92;;;5.30;87.70;;;;;;6246943;22;20004;-86
2021/05/09 00:54:47;;;;;;;4.40;3.08;;;5.30;87.50;;;;;;6245325;22;20004;-87
2021/05/09 00:57:14;;;;;;;4.20;2.87;;;5.30;88.10;;;;;;6245903;23;20323;-87
2021/05/09 00:59:43;;;;;;;4.07;3.00;;;5.30;88.00;;;;;;6246948;22;20050;-87
2021/05/09 01:02:09;;;;;;;4.65;3.42;;;5.30;87.90;;;;;;6245159;22;20007;-87
2021/05/09 01:04:35;;;;;;;3.95;3.17;;;5.30;87.70;;;;;;6245367;23;20362;-87
2021/05/09 01:07:02;;;;;;;3.95;2.70;;;5.30;87.70;;;;;;6246794;22;20011;-87
2021/05/09 01:09:28;;;;;;;4.78;3.47;;;5.30;87.50;;;;;;6245248;23;20081;-87
2021/05/09 01:11:54;;;;;;;4.28;2.90;;;5.20;87.60;;;;;;6245952;23;20363;-88
2021/05/09 01:14:19;;;;;;;3.45;2.88;;;5.20;87.80;;;;;;6245110;22;20435;-87
2021/05/09 01:16:45;;;;;;;4.10;3.00;;;5.20;87.80;;;;;;6245227;22;20328;-87
2021/05/09 01:19:12;;;;;;;4.65;2.67;;;5.20;87.90;;;;;;6246737;22;20004;-87
2021/05/09 01:21:37;;;;;;;2.80;2.50;;;5.20;87.70;;;;;;6246730;22;20043;-87
2021/05/09 01:24:04;;;;;;;3.35;2.75;;;5.20;87.80;;;;;;6246834;22;20000;-87
2021/05/09 01:26:29;;;;;;;4.25;2.65;;;5.20;87.70;;;;;;6246359;22;20047;-87
2021/05/09 01:28:55;;;;;;;3.85;2.60;;;5.10;88.00;;;;;;6247022;22;20000;-87
2021/05/09 01:31:21;;;;;;;3.90;2.63;;;5.10;87.90;;;;;;6246786;22;20008;-87
2021/05/09 01:33:47;;;;;;;2.95;2.53;;;5.10;87.70;;;;;;6245271;23;20428;-87
2021/05/09 01:36:12;;;;;;;3.00;2.47;;;5.10;88.10;;;;;;6245115;23;20036;-87
2021/05/09 01:38:38;;;;;;;3.60;2.70;;;5.10;87.90;;;;;;6246982;22;20004;-87
2021/05/09 01:41:04;;;;;;;3.50;2.47;;;5.10;88.00;;;;;;6245144;23;20036;-87
2021/05/09 01:43:37;;;;;;;3.10;2.60;;;5.10;87.80;;;;;;6245035;22;20012;-87
2021/05/09 01:46:03;;;;;;;2.85;2.47;;;5.10;88.00;;;;;;6246296;22;20439;-87
2021/05/09 01:48:29;;;;;;;3.38;2.72;;;5.10;87.90;;;;;;6245010;22;20450;-87
2021/05/09 01:50:55;;;;;;;3.97;2.83;;;5.00;87.80;;;;;;6245895;22;20010;-87
2021/05/09 01:53:21;;;;;;;4.50;2.90;;;5.00;88.10;;;;;;6246649;22;20032;-87
2021/05/09 01:55:47;;;;;;;4.25;3.05;;;5.00;88.10;;;;;;6245629;22;20004;-86
2021/05/09 01:58:12;;;;;;;3.20;2.67;;;5.00;87.80;;;;;;6246584;22;20001;-87
2021/05/09 02:00:38;;;;;;;4.85;3.05;;;5.00;88.10;;;;;;6245019;22;20027;-87
2021/05/09 02:03:04;;;;;;;4.60;2.90;;;5.00;88.60;;;;;;6246585;22;20066;-87
2021/05/09 02:05:30;;;;;;;4.13;3.20;;;5.00;88.10;;;;;;6245111;23;20000;-87
2021/05/09 02:07:55;;;;;;;3.10;2.70;;;5.00;88.50;;;;;;6245018;23;20008;-87
2021/05/09 02:10:21;;;;;;;3.55;2.58;;;5.00;88.80;;;;;;6246570;22;19996;-87
2021/05/09 02:12:47;;;;;;;3.35;2.72;;;4.90;88.50;;;;;;6246224;22;20000;-87
2021/05/09 02:15:13;;;;;;;4.32;2.85;;;4.90;88.10;;;;;;6246825;22;20016;-87
2021/05/09 02:17:38;;;;;;;2.72;2.30;;;4.90;88.60;;;;;;6244925;22;19997;-87
2021/05/09 02:20:06;;;;;;;3.28;2.80;;;4.90;88.20;;;;;;6247157;22;20008;-87
2021/05/09 02:22:32;;;;;;;4.18;2.67;;;4.90;88.20;;;;;;6246610;23;20008;-87
2021/05/09 02:24:57;;;;;;;5.10;2.78;;;4.90;88.10;;;;;;6247363;23;20015;-87
2021/05/09 02:27:23;;;;;;;4.28;2.88;;;4.90;88.50;;;;;;6248394;22;20003;-87
2021/05/09 02:29:49;;;;;;;4.47;2.58;;;4.90;88.20;;;;;;6248328;22;19997;-87
2021/05/09 02:32:14;;;;;;;5.70;2.70;;;4.90;88.40;;;;;;6248268;22;20010;-87
2021/05/09 02:34:40;;;;;;;2.70;2.10;;;4.90;89.00;;;;;;6246735;22;20375;-87
2021/05/09 02:37:06;;;;;;;5.40;3.05;;;4.90;88.60;;;;;;6246843;23;20054;-87
2021/05/09 02:39:32;;;;;;;3.17;2.40;;;4.90;88.60;;;;;;6247928;22;20432;-87
2021/05/09 02:41:57;;;;;;;4.18;3.05;;;4.90;88.80;;;;;;6248182;22;20008;-87
2021/05/09 02:44:23;;;;;;;4.50;3.55;;;4.90;89.20;;;;;;6248188;22;19996;-87
2021/05/09 02:46:49;;;;;;;4.13;2.97;;;4.90;89.10;;;;;;6246606;23;20332;-87
2021/05/09 02:49:15;;;;;;;4.32;3.05;;;4.90;89.00;;;;;;6247488;23;20005;-87
2021/05/09 02:51:41;;;;;;;3.78;2.80;;;4.90;89.30;;;;;;6247194;23;20334;-87
2021/05/09 02:54:06;;;;;;;10.77;3.72;;;5.00;89.20;;;;;;6246908;23;20469;-87
2021/05/09 02:56:32;;;;;;;6.13;2.90;;;5.00;89.00;;;;;;6248110;22;20000;-87
2021/05/09 02:58:57;;;;;;;3.90;2.75;;;5.10;89.40;;;;;;6246492;23;20004;-86
2021/05/09 03:01:23;;;;;;;4.05;2.75;;;5.10;89.10;;;;;;6247546;22;20008;-87
2021/05/09 03:03:49;;;;;;;4.72;3.15;;;5.10;89.00;;;;;;6248298;22;19996;-87
2021/05/09 03:06:15;;;;;;;5.78;2.58;;;5.10;89.00;;;;;;6247149;22;20008;-87
2021/05/09 03:08:41;;;;;;;3.50;2.80;;;5.20;89.00;;;;;;6247826;22;20004;-87
2021/05/09 03:11:06;;;;;;;3.90;2.67;;;5.20;88.90;;;;;;6247494;22;19996;-87
2021/05/09 03:13:32;;;;;;;4.13;2.85;;;5.20;88.80;;;;;;6246340;22;20016;-87
2021/05/09 03:15:59;;;;;;;3.15;2.42;;;5.30;88.80;;;;;;6247901;22;20000;-86
2021/05/09 03:18:28;;;;;;;4.25;2.78;;;5.40;88.60;;;;;;6246844;23;20004;-87
2021/05/09 03:20:54;;;;;;;3.15;2.65;;;5.40;88.40;;;;;;6246110;23;20007;-87
2021/05/09 03:23:20;;;;;;;4.13;2.70;;;5.50;88.20;;;;;;6247314;22;20008;-87
2021/05/09 03:25:49;;;;;;;4.32;3.30;;;5.50;88.00;;;;;;6246489;22;20062;-87
2021/05/09 03:28:15;;;;;;;3.33;2.30;;;5.60;87.80;;;;;;6246191;22;20005;-87
2021/05/09 03:30:41;;;;;;;2.55;2.28;;;5.70;87.60;;;;;;6247603;22;20022;-87
2021/05/09 03:33:07;;;;;;;8.05;3.15;;;5.80;87.50;;;;;;6247608;22;20079;-87
2021/05/09 03:35:34;;;;;;;5.07;3.20;;;5.80;87.20;;;;;;6247896;22;20420;-87
2021/05/09 03:38:00;;;;;;;6.85;3.20;;;5.90;87.70;;;;;;6246026;22;20004;-87
2021/05/09 03:40:26;;;;;;;5.28;3.30;;;6.00;86.80;;;;;;6247657;22;20000;-87
2021/05/09 03:42:52;;;;;;;4.82;2.67;;;6.10;86.70;;;;;;6246077;23;20058;-87
2021/05/09 03:45:18;;;;;;;7.22;3.10;;;6.20;86.30;;;;;;6247569;22;20343;-87
2021/05/09 03:47:44;;;;;;;4.22;2.67;;;6.30;86.10;;;;;;6246792;23;20363;-87
2021/05/09 03:50:10;;;;;;;3.88;2.75;;;6.40;85.80;;;;;;6246262;23;20030;-87
2021/05/09 03:52:35;;;;;;;3.08;2.28;;;6.40;85.10;;;;;;6245895;23;20011;-87
2021/05/09 03:55:01;;;;;;;4.55;2.80;;;6.50;84.90;;;;;;6245957;23;20004;-87
2021/05/09 03:57:27;;;;;;;4.60;3.15;;;6.60;84.60;;;;;;6245974;23;20008;-87
2021/05/09 03:59:53;;;;;;;3.38;2.83;;;6.70;84.30;;;;;;6247320;22;20289;-87
2021/05/09 04:02:19;;;;;;;4.78;3.00;;;6.80;83.80;;;;;;6247366;22;20004;-87
2021/05/09 04:04:45;;;;;;;3.80;3.08;;;6.80;83.40;;;;;;6247421;22;20001;-87
2021/05/09 04:07:11;;;;;;;3.67;2.60;;;6.90;83.60;;;;;;6245696;23;20034;-87
2021/05/09 04:09:36;;;;;;;3.10;2.70;;;7.00;82.80;;;;;;6245813;22;20012;-87
2021/05/09 04:12:03;;;;;;;4.38;2.70;;;7.10;82.30;;;;;;6247358;22;20000;-87
2021/05/09 04:14:29;;;;;;;3.50;2.55;;;7.20;82.10;;;;;;6247378;22;20008;-87
2021/05/09 04:16:56;;;;;;;3.55;2.60;;;7.30;81.60;;;;;;6247344;22;20001;-87
2021/05/09 04:19:21;;;;;;;3.63;2.60;;;7.40;81.40;;;;;;6246975;22;19996;-87
2021/05/09 04:21:47;;;;;;;3.67;2.55;;;7.50;80.90;;;;;;6245859;22;20023;-87
2021/05/09 04:24:13;;;;;;;4.85;2.50;;;7.50;80.30;;;;;;6247239;22;20031;-87
2021/05/09 04:26:38;;;;;;;3.47;2.58;;;7.60;79.70;;;;;;6245746;23;20007;-87
2021/05/09 04:29:04;;;;;;;2.97;2.30;;;7.70;79.90;;;;;;6245635;23;20083;-87
2021/05/09 04:31:31;;;;;;;4.57;2.67;;;7.80;79.70;;;;;;6245594;23;20449;-86
2021/05/09 04:33:56;;;;;;;2.63;2.05;;;7.80;79.20;;;;;;6247372;22;19996;-87
2021/05/09 04:36:22;;;;;;;2.85;2.22;;;7.90;79.30;;;;;;6245531;23;19996;-87
2021/05/09 04:38:48;;;;;;;2.65;2.42;;;8.00;78.40;;;;;;6247119;22;20000;-87
2021/05/09 04:41:13;;;;;;;3.00;2.30;;;8.10;78.10;;;;;;6245442;23;20056;-87
2021/05/09 04:43:39;;;;;;;3.25;2.25;;;8.20;77.40;;;;;;6246600;22;20019;-87
2021/05/09 04:46:05;;;;;;;4.32;2.72;;;8.30;76.50;;;;;;6245421;23;20011;-87
2021/05/09 04:48:31;;;;;;;3.72;2.83;;;8.40;74.90;;;;;;6247207;22;20058;-87
2021/05/09 04:50:57;;;;;;;3.85;2.58;;;8.40;73.50;;;;;;6246986;22;20019;-87
2021/05/09 04:53:23;;;;;;;3.17;2.60;;;8.50;74.10;;;;;;6245307;23;20008;-87
2021/05/09 04:55:49;;;;;;;2.85;2.15;;;8.50;74.00;;;;;;6247024;22;19996;-87
2021/05/09 04:58:14;;;;;;;2.58;2.38;;;8.60;73.30;;;;;;6246997;22;20004;-87
2021/05/09 05:00:40;;;;;;;3.05;2.35;;;8.60;72.80;;;;;;6245986;22;20011;-87
2021/05/09 05:03:06;;;;;;;2.45;2.22;;;8.70;72.70;;;;;;6246384;22;20059;-87
2021/05/09 05:05:31;;;;;;;2.88;2.50;;;8.80;72.90;;;;;;6246997;22;20388;-87
2021/05/09 05:07:57;;;;;;;3.08;2.58;;;8.90;72.60;;;;;;6245359;23;20324;-87
2021/05/09 05:10:22;;;;;;;3.67;2.50;;;8.90;71.70;;;;;;6246754;22;20419;-87
2021/05/09 05:12:48;;;;;;;3.20;2.42;;;9.00;72.10;;;;;;6245073;22;20015;-87
2021/05/09 05:15:14;;;;;;;4.70;2.78;;;9.10;70.80;;;;;;6244793;22;20050;-87
2021/05/09 05:17:39;;;;;;;4.03;2.53;;;9.10;70.30;;;;;;6246378;22;20011;-87
2021/05/09 05:20:05;;;;;;;3.28;2.35;;;9.20;70.30;;;;;;6245259;23;20004;-86
2021/05/09 05:22:31;;;;;;;4.82;2.40;;;9.20;69.70;;;;;;6246626;22;20012;-86
2021/05/09 05:24:57;;;;;;;2.72;2.25;;;9.20;68.70;;;;;;6246353;22;20328;-86
2021/05/09 05:27:22;;;;;;;2.60;2.40;;;9.30;69.00;;;;;;6246281;22;20416;-87
2021/05/09 05:29:48;;;;;;;3.35;2.88;;;9.30;68.10;;;;;;6248110;22;20494;-87
2021/05/09 05:32:14;;;;;;;2.05;1.85;;;9.40;67.30;;;;;;6246048;22;20008;-87
2021/05/09 05:34:39;;;;;;;2.65;2.40;;;9.40;68.00;;;;;;6246877;22;20000;-87
2021/05/09 05:37:05;;;;;;;3.40;2.17;;;9.40;67.50;;;;;;6245340;23;20008;-87
2021/05/09 05:39:31;;;;;;;2.55;2.28;;;9.50;68.00;;;;;;6245185;23;20019;-87
2021/05/09 05:41:58;;;;;;;7.28;2.63;;;9.60;67.40;;;;;;6245013;23;20017;-87
2021/05/09 05:44:23;;;;;;;3.50;2.28;;;9.70;66.70;;;;;;6246903;22;20004;-87
2021/05/09 05:46:49;;;;;;;2.42;2.22;;;9.70;66.50;;;;;;6246628;22;20416;-86
2021/05/09 05:49:15;;;;;;;4.38;2.40;;;9.80;66.30;;;;;;6245006;23;20004;-86
2021/05/09 05:51:41;;;;;;;2.78;2.30;;;9.90;65.80;;;;;;6245006;23;20340;-86
2021/05/09 05:54:06;;;;;;;2.75;2.42;;;9.90;65.60;;;;;;6246315;22;20000;-87
2021/05/09 05:56:32;;;;;;;2.90;2.58;;;9.90;65.30;;;;;;6246981;23;20004;-87
2021/05/09 05:58:58;;;;;;;3.85;2.78;;;10.00;65.20;;;;;;6247012;23;20494;-87
2021/05/09 06:01:24;;;;;;;3.00;2.20;;;10.00;63.80;;;;;;6248560;22;20039;-87
2021/05/09 06:03:50;;;;;;;2.85;2.35;;;10.10;64.50;;;;;;6246856;23;20016;-87
2021/05/09 06:06:16;;;;;;;3.05;2.38;;;10.20;64.30;;;;;;6247143;23;20009;-88
2021/05/09 06:08:42;;;;;;;3.85;2.72;;;10.30;63.90;;;;;;6248489;22;20003;-85
2021/05/09 06:11:08;;;;;;;3.10;2.53;;;10.40;62.80;;;;;;6246726;23;20115;-86
2021/05/09 06:13:34;;;;;;;6.22;2.17;;;10.40;61.80;;;;;;6246199;22;20048;-86
2021/05/09 06:15:59;;;;;;;2.90;2.13;;;10.50;63.10;;;;;;6246874;23;20019;-86
2021/05/09 06:18:25;;;;;;;2.75;2.22;;;10.60;63.10;;;;;;6248213;22;20075;-88
2021/05/09 06:20:51;;;;;;;3.03;2.25;;;10.70;61.70;;;;;;6246592;23;20020;-85
2021/05/09 06:23:24;;;;;;;2.53;2.25;;;10.80;60.50;;;;;;6248376;22;20000;-85
2021/05/09 06:25:50;;;;;;;2.00;1.90;;;10.80;58.30;;;;;;6247620;22;20005;-88
2021/05/09 06:28:16;;;;;;;2.25;2.05;;;10.90;57.90;;;;;;6248488;22;20011;-86
2021/05/09 06:30:43;;;;;;;3.50;2.58;;;10.90;58.80;;;;;;6246711;23;20320;-88
2021/05/09 06:33:09;;;;;;;2.35;2.00;;;11.00;59.00;;;;;;6246664;23;20439;-87
2021/05/09 06:35:38;;;;;;;2.50;2.30;;;11.10;58.60;;;;;;6248197;22;20000;-88
2021/05/09 06:38:04;;;;;;;2.22;1.73;;;11.20;59.10;;;;;;6248860;22;20004;-87
2021/05/09 06:40:30;;;;;;;3.25;2.10;;;11.40;57.80;;;;;;6246528;22;20066;-87
2021/05/09 06:42:57;;;;;;;2.85;1.92;;;11.40;57.30;;;;;;6246448;22;20008;-88
2021/05/09 06:45:28;;;;;;;3.35;2.22;;;11.40;55.70;;;;;;6246826;23;20043;-88
2021/05/09 06:47:58;;;;;;;2.53;2.20;;;11.50;56.20;;;;;;6246985;23;20027;-87
2021/05/09 06:50:26;;;;;;;2.15;1.95;;;11.50;55.90;;;;;;6246636;23;20027;-88
2021/05/09 06:52:52;;;;;;;2.05;1.90;;;11.60;54.60;;;;;;6247554;22;20064;-88
2021/05/09 06:55:18;;;;;;;2.83;2.33;;;11.60;54.30;;;;;;6246470;23;20027;-87
2021/05/09 06:57:47;;;;;;;2.28;2.03;;;11.60;54.00;;;;;;6247961;22;20076;-88
2021/05/09 07:00:15;;;;;;;2.20;1.80;;;11.60;54.80;;;;;;6246434;22;20047;-88
2021/05/09 07:02:41;;;;;;;2.47;1.80;;;11.70;54.70;;;;;;6246125;23;20030;-88
2021/05/09 07:05:07;;;;;;;2.58;2.00;;;11.80;54.10;;;;;;6247102;22;20439;-88
2021/05/09 07:07:46;;;;;;;2.00;1.75;;;11.80;54.20;;;;;;6246136;23;20011;-88
2021/05/09 07:10:12;;;;;;;2.20;2.03;;;11.80;53.40;;;;;;6247931;22;20011;-87
2021/05/09 07:12:37;;;;;;;2.03;1.65;;;11.80;53.40;;;;;;6247853;22;20008;-87
2021/05/09 07:15:04;;;;;;;2.67;1.65;;;11.80;54.30;;;;;;6246185;23;20332;-87
2021/05/09 07:17:30;;;;;;;2.13;1.92;;;11.90;54.50;;;;;;6246397;22;20000;-87
2021/05/09 07:19:55;;;;;;;1.80;1.60;;;12.00;53.80;;;;;;6247552;22;19996;-87
2021/05/09 07:22:28;;;;;;;2.92;2.22;;;12.10;52.90;;;;;;6247655;22;20403;-88
2021/05/09 07:24:53;;;;;;;1.95;1.80;;;12.20;52.60;;;;;;6246745;23;20008;-87
2021/05/09 07:27:19;;;;;;;2.55;1.67;;;12.30;52.30;;;;;;6247629;22;20008;-88
2021/05/09 07:29:45;;;;;;;2.60;1.90;;;12.40;52.30;;;;;;6247655;22;20024;-87
2021/05/09 07:32:10;;;;;;;1.92;1.80;;;12.40;51.00;;;;;;6246034;22;20012;-87
2021/05/09 07:34:36;;;;;;;1.75;1.65;;;12.40;51.40;;;;;;6247551;22;20004;-86
2021/05/09 07:37:02;;;;;;;2.58;1.88;;;12.50;51.20;;;;;;6247677;22;20083;-87
2021/05/09 07:39:28;;;;;;;3.13;2.22;;;12.50;51.20;;;;;;6248623;22;20358;-87
2021/05/09 07:41:54;;;;;;;2.10;1.95;;;12.50;50.10;;;;;;6246472;22;20008;-87
2021/05/09 07:44:20;;;;;;;2.28;1.80;;;12.50;49.20;;;;;;6247552;22;20405;-88
2021/05/09 07:46:45;;;;;;;2.40;2.20;;;12.50;48.90;;;;;;6247686;22;20368;-87
2021/05/09 07:49:11;;;;;;;2.63;2.00;;;12.50;49.00;;;;;;6247575;22;20030;-87
2021/05/09 07:51:37;;;;;;;2.03;1.80;;;12.60;48.60;;;;;;6245526;23;20008;-87
2021/05/09 07:54:03;;;;;;;2.17;1.60;;;12.70;48.80;;;;;;6245896;22;20016;-87
2021/05/09 07:56:28;;;;;;;1.88;1.75;;;12.80;48.10;;;;;;6245785;23;20004;-88
2021/05/09 07:58:54;;;;;;;1.60;1.50;;;12.90;47.70;;;;;;6246103;22;20099;-88
2021/05/09 08:01:20;;;;;;;2.65;1.83;;;13.00;47.50;;;;;;6247539;22;20005;-88
2021/05/09 08:03:46;;;;;;;1.98;1.83;;;13.00;47.30;;;;;;6245714;22;20098;-88
2021/05/09 08:06:11;;;;;;;2.13;1.92;;;13.10;46.80;;;;;;6245813;22;20331;-87
2021/05/09 08:08:38;;;;;;;2.40;2.00;;;13.10;45.90;;;;;;6245716;23;20008;-88
2021/05/09 08:11:04;;;;;;;1.92;1.73;;;13.10;44.70;;;;;;6246066;23;20009;-87
2021/05/09 08:13:29;;;;;;;1.90;1.73;;;13.20;44.90;;;;;;6245245;23;20441;-87
2021/05/09 08:15:55;;;;;;;2.13;1.60;;;13.30;45.70;;;;;;6246930;23;19997;-87
2021/05/09 08:18:25;;;;;;;2.03;1.80;;;13.30;46.30;;;;;;6246523;23;20000;-87
2021/05/09 08:20:52;;;;;;;1.80;1.60;;;13.40;45.20;;;;;;6246968;23;20008;-86
2021/05/09 08:23:19;;;;;;;2.25;2.03;;;13.50;45.50;;;;;;6247185;22;20131;-88
2021/05/09 08:25:45;;;;;;;5.82;2.40;;;13.50;43.80;;;;;;6220249;23;20004;-86
2021/05/09 08:28:11;;;;;;;2.03;1.92;;;13.50;44.30;;;;;;6220719;23;20014;-87
2021/05/09 08:30:37;;;;;;;1.63;1.50;;;13.40;43.50;;;;;;6220214;23;20004;-85
2021/05/09 08:33:03;;;;;;;4.03;1.88;;;13.30;43.70;;;;;;6220052;23;20503;-87
2021/05/09 08:35:28;;;;;;;1.75;1.65;;;13.20;43.70;;;;;;6220271;23;20088;-87
2021/05/09 08:37:54;;;;;;;2.13;1.70;;;13.10;44.50;;;;;;6220044;23;20043;-87
2021/05/09 08:40:20;;;;;;;1.75;1.60;;;13.10;44.20;;;;;;6246693;22;20004;-86
2021/05/09 08:42:50;;;;;;;2.05;1.85;;;13.10;44.40;;;;;;6219945;23;20089;-86
2021/05/09 08:45:18;;;;;;;2.20;2.00;;;13.30;44.30;;;;;;6219850;23;20000;-86
2021/05/09 08:47:44;;;;;;;2.20;2.00;;;13.50;44.10;;;;;;6219853;23;20000;-88
2021/05/09 08:50:15;;;;;;;3.08;2.67;;;13.50;44.10;;;;;;6246955;23;20079;-88
2021/05/09 08:52:44;;;;;;;2.17;1.98;;;13.40;43.80;;;;;;6220239;23;20451;-88
2021/05/09 08:55:12;;;;;;;3.28;1.90;;;13.40;44.20;;;;;;6220104;23;20004;-85
2021/05/09 08:57:41;;;;;;;2.10;1.90;;;13.40;44.60;;;;;;6246803;23;20011;-86
2021/05/09 09:00:09;;;;;;;2.50;1.75;;;13.60;44.40;;;;;;6220217;23;20495;-86
2021/05/09 09:02:35;;;;;;;1.52;1.35;;;13.70;43.50;;;;;;6246584;23;20427;-86
2021/05/09 09:05:01;;;;;;;1.88;1.73;;;13.70;43.30;;;;;;6220120;23;20087;-88
2021/05/09 09:07:47;;;;;;;3.50;2.13;;;13.60;43.90;;;;;;6246689;23;19996;-86
2021/05/09 09:10:29;;;;;;;1.90;1.58;;;13.60;44.00;;;;;;6246530;23;20431;-86
2021/05/09 09:12:59;;;;;;;2.15;1.95;;;13.60;43.20;;;;;;6245206;23;20058;-87
2021/05/09 09:15:25;;;;;;;4.43;1.80;;;13.60;44.60;;;;;;6247254;23;20012;-86
2021/05/09 09:17:50;;;;;;;2.47;2.15;;;13.70;44.40;;;;;;6219881;23;20015;-86
2021/05/09 09:20:17;;;;;;;3.80;1.80;;;13.80;44.00;;;;;;6219956;23;20004;-87
2021/05/09 09:23:01;;;;;;;2.55;2.17;;;13.80;44.20;;;;;;6247521;22;20056;-88
2021/05/09 09:25:28;;;;;;;;;;;13.80;45.10;;;;;;6247542;23;20281;-87
2021/05/09 09:27:55;;;;;;;1.80;1.70;;;13.80;44.60;;;;;;6219914;23;19899;-88
2021/05/09 09:30:24;;;;;;;1.80;1.67;;;13.90;45.40;;;;;;6221466;23;20346;-88
2021/05/09 09:33:11;;;;;;;2.78;2.05;;;14.00;44.60;;;;;;6221944;23;20070;-87
2021/05/09 09:35:38;;;;;;;1.92;1.75;;;14.10;43.20;;;;;;6247767;22;20007;-87
2021/05/09 09:38:24;;;;;;;4.47;2.20;;;14.20;43.80;;;;;;6221719;23;20371;-87
2021/05/09 09:41:10;;;;;;;2.40;2.20;;;14.20;42.70;;;;;;6248688;23;20320;-87
2021/05/09 09:43:36;;;;;;;2.15;1.90;;;14.10;42.90;;;;;;6248482;23;20004;-87
2021/05/09 09:46:03;;;;;;;2.08;1.88;;;13.90;42.90;;;;;;6248934;23;20015;-87
2021/05/09 09:48:40;;;;;;;2.05;1.90;;;13.80;43.40;;;;;;6221555;23;20011;-87
2021/05/09 09:51:09;;;;;;;1.70;1.60;;;13.70;43.40;;;;;;6221291;23;20034;-87
2021/05/09 09:53:44;;;;;;;2.35;2.15;;;13.70;43.80;;;;;;6248316;23;20004;-87
2021/05/09 09:56:11;;;;;;;2.53;2.13;;;13.70;43.60;;;;;;6248058;23;20063;-87
2021/05/09 09:58:51;;;;;;;4.10;2.13;;;13.70;43.20;;;;;;6221643;23;20015;-88
2021/05/09 10:01:21;;;;;;;1.65;1.55;;;13.70;42.80;;;;;;6248558;22;20000;-87
2021/05/09 10:03:47;;;;;;;1.90;1.70;;;13.80;42.20;;;;;;6221964;23;20012;-87
2021/05/09 10:06:14;;;;;;;1.80;1.70;;;14.00;41.70;;;;;;6224158;23;20012;-87
2021/05/09 10:08:40;;;;;;;2.60;1.95;;;14.10;42.40;;;;;;6248535;23;20308;-87
2021/05/09 10:11:07;;;;;;;2.10;1.90;;;14.20;41.70;;;;;;6248421;23;20003;-87
2021/05/09 10:13:33;;;;;;;2.47;2.17;;;14.20;40.90;;;;;;6248175;22;20012;-88
2021/05/09 10:16:01;;;;;;;1.67;1.58;;;14.20;41.40;;;;;;6221556;23;20004;-88
2021/05/09 10:18:28;;;;;;;2.28;2.08;;;14.20;41.30;;;;;;6248399;23;20006;-88
2021/05/09 10:20:55;;;;;;;1.92;1.75;;;14.30;41.80;;;;;;6221990;23;20001;-88
2021/05/09 10:23:21;;;;;;;1.98;1.80;;;14.40;42.30;;;;;;6221271;23;20016;-87
2021/05/09 10:25:55;;;;;;;3.03;1.83;;;14.60;41.60;;;;;;6221160;23;20149;-87
2021/05/09 10:28:27;;;;;;;4.65;1.95;;;14.70;41.40;;;;;;6221975;23;20008;-86
2021/05/09 10:30:55;;;;;;;2.20;2.00;;;14.80;41.00;;;;;;6221687;23;20003;-88
2021/05/09 10:33:40;;;;;;;2.03;1.80;;;14.70;41.00;;;;;;6221686;23;20008;-87
2021/05/09 10:36:11;;;;;;;1.77;1.67;;;14.90;41.50;;;;;;6248316;22;20058;-87
2021/05/09 10:39:07;;;;;;;4.07;2.33;;;14.80;41.00;;;;;;6221847;23;20000;-87
2021/05/09 10:41:53;;;;;;;2.83;2.22;;;14.70;40.60;;;;;;6246348;23;20024;-88
2021/05/09 10:44:47;;;;;;;2.17;2.00;;;14.70;40.40;;;;;;6211138;23;20012;-87
2021/05/09 10:47:17;;;;;;;2.25;2.05;;;14.70;39.30;;;;;;6248607;23;19996;-87
2021/05/09 10:50:13;;;;;;;2.10;1.90;;;14.70;40.10;;;;;;6248045;23;20001;-87
2021/05/09 10:52:43;;;;;;;2.28;2.03;;;14.60;39.80;;;;;;6247653;22;20036;-87
2021/05/09 10:55:45;;;;;;;2.15;1.70;;;14.50;39.70;;;;;;6248073;22;20330;-86
2021/05/09 10:58:17;;;;;;;2.17;1.98;;;14.40;40.20;;;;;;6247576;22;20436;-86
2021/05/09 11:00:58;;;;;;;1.70;1.60;;;14.30;40.20;;;;;;6247932;23;19996;-87
2021/05/09 11:03:44;;;;;;;2.55;2.35;;;14.20;40.60;;;;;;6246664;23;20004;-87
2021/05/09 11:06:11;;;;;;;2.42;1.95;;;14.30;41.10;;;;;;6248047;23;19996;-87
2021/05/09 11:08:42;;;;;;;2.38;1.70;;;14.40;41.00;;;;;;6246382;22;20317;-87
2021/05/09 11:11:14;;;;;;;3.15;2.25;;;14.50;40.80;;;;;;6246216;23;20004;-87
2021/05/09 11:16:31;;;;;;;2.35;2.03;;;14.70;40.20;;;;;;6247692;22;20489;-87
2021/05/09 11:19:03;;;;;;;2.60;2.40;;;14.70;39.90;;;;;;6248175;23;20099;-87
2021/05/09 11:21:34;;;;;;;2.25;2.05;;;14.80;40.20;;;;;;6247231;23;20058;-87
2021/05/09 11:24:02;;;;;;;2.17;1.98;;;14.80;40.80;;;;;;6220813;23;20079;-87
2021/05/09 11:26:37;;;;;;;1.90;1.63;;;14.90;41.00;;;;;;6248151;23;20371;-87
2021/05/09 11:29:13;;;;;;;2.97;2.10;;;15.10;40.80;;;;;;6247841;23;20024;-87
2021/05/09 11:31:42;;;;;;;2.28;2.00;;;15.10;40.10;;;;;;6220950;23;20000;-87
2021/05/09 11:34:08;;;;;;;1.70;1.60;;;15.10;40.00;;;;;;6220800;23;20007;-87
2021/05/09 11:36:36;;;;;;;2.10;1.90;;;15.20;40.70;;;;;;6220581;23;20035;-87
2021/05/09 11:39:06;;;;;;;3.40;2.10;;;15.30;40.80;;;;;;6220748;23;20016;-86
2021/05/09 11:41:46;;;;;;;2.10;1.90;;;15.30;39.90;;;;;;6246291;22;20062;-86
2021/05/09 11:44:12;;;;;;;1.77;1.67;;;15.20;40.20;;;;;;6247324;23;20019;-86
2021/05/09 11:46:37;;;;;;;1.95;1.80;;;15.00;40.50;;;;;;6220467;23;20008;-86
2021/05/09 11:49:23;;;;;;;1.45;1.35;;;14.80;40.70;;;;;;6247514;22;19997;-86
2021/05/09 11:51:56;;;;;;;1.85;1.67;;;14.80;41.10;;;;;;6247350;23;20327;-86
2021/05/09 11:54:26;;;;;;;2.10;1.90;;;14.80;41.30;;;;;;6220687;23;20039;-87
2021/05/09 11:56:57;;;;;;;3.47;2.10;;;14.90;41.10;;;;;;6247517;23;20003;-86
2021/05/09 11:59:48;;;;;;;3.35;2.20;;;15.10;40.00;;;;;;6220573;23;20083;-86
2021/05/09 12:02:17;;;;;;;1.70;1.60;;;15.20;39.00;;;;;;6227811;22;20065;-87
2021/05/09 12:04:47;;;;;;;2.92;2.03;;;15.20;39.90;;;;;;6247522;22;20004;-87
2021/05/09 12:07:19;;;;;;;2.30;2.00;;;15.40;39.90;;;;;;6247353;23;20073;-87
2021/05/09 12:09:49;;;;;;;2.85;2.13;;;15.50;39.40;;;;;;6247550;23;20316;-86
2021/05/09 12:12:17;;;;;;;2.03;1.88;;;15.60;39.70;;;;;;6247188;23;20001;-87
2021/05/09 12:14:44;;;;;;;3.55;2.05;;;15.70;37.40;;;;;;6246569;22;20012;-87
2021/05/09 12:17:27;;;;;;;2.45;2.10;;;15.70;38.20;;;;;;6220408;23;20000;-86
2021/05/09 12:19:54;;;;;;;1.95;1.85;;;16.00;38.00;;;;;;6220160;23;20004;-87
2021/05/09 12:22:20;;;;;;;2.40;1.95;;;16.10;37.00;;;;;;6246753;23;20412;-87
2021/05/09 12:24:50;;;;;;;1.80;1.70;;;16.10;37.00;;;;;;6247292;22;20007;-86
2021/05/09 12:27:16;;;;;;;1.92;1.65;;;16.30;37.70;;;;;;6245467;23;20432;-87
2021/05/09 12:29:56;;;;;;;2.08;1.70;;;16.60;36.90;;;;;;6247116;22;19992;-86
2021/05/09 12:32:31;;;;;;;2.30;1.92;;;16.90;36.70;;;;;;6247006;23;20011;-86
2021/05/09 12:35:07;;;;;;;1.88;1.70;;;17.30;35.90;;;;;;6220093;23;20008;-87
2021/05/09 12:37:46;;;;;;;2.17;1.88;;;17.60;35.50;;;;;;6247286;23;20000;-86
2021/05/09 12:40:24;;;;;;;2.30;1.85;;;17.90;33.40;;;;;;6247133;23;20031;-87
2021/05/09 12:43:22;;;;;;;3.05;2.00;;;18.10;34.40;;;;;;6220491;23;20011;-87
2021/05/09 12:45:49;;;;;;;1.77;1.67;;;18.30;33.70;;;;;;6213899;22;20075;-87
2021/05/09 12:48:30;;;;;;;1.75;1.65;;;18.60;34.30;;;;;;6246959;23;20439;-87
2021/05/09 12:51:01;;;;;;;2.55;1.98;;;18.80;30.80;;;;;;6247978;23;20003;-87
2021/05/09 12:53:46;;;;;;;1.92;1.80;;;18.80;33.40;;;;;;6246855;22;20004;-86
2021/05/09 12:56:28;;;;;;;1.60;1.50;;;19.20;32.70;;;;;;6246855;23;20446;-87
2021/05/09 12:59:19;;;;;;;1.80;1.70;;;19.70;33.50;;;;;;6245281;23;20427;-87
2021/05/09 13:01:59;;;;;;;1.95;1.77;;;20.10;30.90;;;;;;6246675;23;19996;-87